Portada
METAR-TAF:

METAR-TAF

Aeroports :

Antigua, Antigua i Barbuda

latitud: 17-07N, longitud: 061-47W, altitud: 8 m

Observació

L'informe es va fer fa 37 minuts, a les 11:00 UTC
Vent 1 kt amb direcció variable
Temperatura 26°C
Humitat 84%
Pressió 1013 hPa
Visibilitat 10 km o més
Escasses núvols a una alçada de 2000 ft

METAR: TAPA 221100Z VRB01KT 9999 FEW020 26/23 Q1013 NOSIG

Hora: 07:37 (11:37 UTC)

Pronòstic

L'informe es va fer fa 6 hores i 37 minuts, a les 05:00 UTC
Pronòstic vàlid del 22 a les 06 UTC al 23 a les 06 UTC
Vent 4 kt del Est/Sud-Est
Visibilitat 10 km o més
Núvols disperses a una alçada de 2000 ft
Probabilitat 40% :
Temporalment
l' 22 a les 14 UTC al 22 a les 20 UTC
Escasses núvols a una alçada de 1200 ft, Cumulonimbus.
Cel ennuvolat a una alçada de 1600 ft
xàfecs de pluja
Probabilitat 30% :
Temporalment
l' 22 a les 16 UTC al 22 a les 18 UTC
tempesta, pluja

TAF: TAPA 220500Z 2206/2306 12004KT 9999 SCT020 PROB40 TEMPO 2214/2220 SHRA FEW012CB BKN016 PROB30 TEMPO 2216/2218 TSRA

Observacions i pronòstics meteorològics de més de 4000 aeroports (METAR i TAF).

Les estacions disponibles són els punts grocs i vermells al mapa.

Posi el ratolí al punt desitjat per veure el nom de l'estació.

Feu clic per veure les observacions i els pronòstics meteorològics.

Per canviar el mapa: feu clic els botons verds amb una creu de color negre per apropar; al botó verd amb un guió per allunyar la imatge; o en les fletxes verdes per a mapes adjacents.


METAR-TAF: